Time;durP1;ratioP1;P1;durP2;ratioP2;P2;SDS_P1;SDS_P2;PMS_P1;PMS_P2;Temp;Humidity;BMP_temperature;BMP_pressure;BME280_temperature;BME280_humidity;BME280_pressure;Samples;Min_cycle;Max_cycle;Signal;HPM_P1;HPM_P2
2021/09/19 00:02:23;;;;;;;3.43;1.70;;;13.00;99.90;;;;;;5012061;28;20177;-71
2021/09/19 00:04:48;;;;;;;2.60;1.53;;;13.00;99.90;;;;;;5011832;28;20277;-72
2021/09/19 00:07:14;;;;;;;2.33;1.50;;;12.90;99.90;;;;;;5012109;28;20180;-71
2021/09/19 00:09:39;;;;;;;1.77;1.33;;;12.90;99.90;;;;;;5011863;28;20615;-69
2021/09/19 00:12:06;;;;;;;2.40;1.60;;;12.90;99.90;;;;;;5011821;28;20182;-69
2021/09/19 00:14:34;;;;;;;1.80;1.60;;;12.90;99.90;;;;;;5011685;28;20215;-69
2021/09/19 00:17:00;;;;;;;1.70;1.60;;;12.90;99.90;;;;;;5011823;28;20469;-70
2021/09/19 00:19:26;;;;;;;3.87;1.97;;;12.90;99.90;;;;;;5011720;28;20427;-70
2021/09/19 00:21:51;;;;;;;2.70;2.50;;;12.90;99.90;;;;;;5011726;28;20419;-71
2021/09/19 00:24:16;;;;;;;2.00;1.60;;;12.90;99.90;;;;;;5011516;28;20286;-70
2021/09/19 00:26:42;;;;;;;2.90;2.00;;;12.90;99.90;;;;;;5011760;28;20182;-69
2021/09/19 00:29:07;;;;;;;1.63;1.20;;;12.90;99.90;;;;;;5011660;28;20180;-71
2021/09/19 00:31:33;;;;;;;1.83;1.63;;;12.80;99.90;;;;;;5010929;28;20647;-69
2021/09/19 00:33:59;;;;;;;2.10;1.40;;;12.90;99.90;;;;;;5011419;28;20200;-70
2021/09/19 00:36:24;;;;;;;1.77;1.67;;;12.80;99.90;;;;;;5011755;28;20230;-70
2021/09/19 00:38:50;;;;;;;3.33;1.40;;;12.80;99.90;;;;;;5011304;28;20183;-70
2021/09/19 00:41:15;;;;;;;2.63;2.00;;;12.80;99.90;;;;;;5011531;28;20224;-69
2021/09/19 00:43:41;;;;;;;2.33;1.93;;;12.80;99.90;;;;;;5011544;28;20201;-70
2021/09/19 00:46:06;;;;;;;2.53;2.07;;;12.80;99.90;;;;;;5011326;28;20238;-69
2021/09/19 00:48:32;;;;;;;1.73;1.63;;;12.80;99.90;;;;;;5011604;28;20175;-69
2021/09/19 00:50:57;;;;;;;3.87;1.90;;;12.80;99.90;;;;;;5011310;28;20580;-69
2021/09/19 00:53:23;;;;;;;3.20;2.00;;;12.80;99.90;;;;;;5011114;28;20180;-69
2021/09/19 00:55:50;;;;;;;1.77;1.63;;;12.70;99.90;;;;;;5011215;28;20204;-69
2021/09/19 00:58:17;;;;;;;1.57;1.43;;;12.70;99.90;;;;;;5011393;28;20843;-70
2021/09/19 01:00:47;;;;;;;2.13;2.00;;;12.70;99.90;;;;;;5011338;28;20445;-70
2021/09/19 01:03:13;;;;;;;2.80;1.73;;;12.70;99.90;;;;;;5011083;28;20930;-69
2021/09/19 01:05:39;;;;;;;1.90;1.40;;;12.70;99.90;;;;;;5011080;28;20430;-69
2021/09/19 01:08:05;;;;;;;1.90;1.70;;;12.70;99.90;;;;;;5011587;28;20263;-70
2021/09/19 01:10:31;;;;;;;2.50;1.80;;;12.70;99.90;;;;;;5011107;28;20487;-71
2021/09/19 01:12:56;;;;;;;3.20;1.97;;;12.70;99.90;;;;;;4993378;28;20172;-69
2021/09/19 01:15:23;;;;;;;3.77;1.87;;;12.70;99.90;;;;;;5010898;28;20200;-70
2021/09/19 01:17:50;;;;;;;2.37;1.80;;;12.60;99.90;;;;;;5011002;28;20191;-70
2021/09/19 01:20:15;;;;;;;1.87;1.70;;;12.60;99.90;;;;;;5011045;28;20539;-70
2021/09/19 01:23:02;;;;;;;2.10;1.60;;;12.60;99.90;;;;;;5010970;28;20417;-69
2021/09/19 01:25:29;;;;;;;2.00;1.80;;;12.60;99.90;;;;;;5011017;28;20184;-70
2021/09/19 01:27:54;;;;;;;4.20;2.00;;;12.60;99.90;;;;;;5011136;28;20503;-69
2021/09/19 01:30:20;;;;;;;2.33;2.00;;;12.60;99.90;;;;;;5010871;28;21008;-69
2021/09/19 01:32:45;;;;;;;3.43;1.53;;;12.70;99.90;;;;;;5010865;28;20272;-71
2021/09/19 01:35:11;;;;;;;1.67;1.57;;;12.60;99.90;;;;;;5010589;28;20212;-70
2021/09/19 01:37:37;;;;;;;3.27;1.77;;;12.70;99.90;;;;;;5011093;28;20594;-69
2021/09/19 01:40:05;;;;;;;2.40;1.87;;;12.60;99.90;;;;;;5010995;28;20408;-69
2021/09/19 01:42:30;;;;;;;2.30;1.73;;;12.70;99.90;;;;;;5011883;28;20271;-69
2021/09/19 01:44:56;;;;;;;2.67;2.03;;;12.70;99.90;;;;;;5014319;28;21015;-70
2021/09/19 01:47:22;;;;;;;1.83;1.60;;;12.70;99.90;;;;;;5013065;28;20569;-70
2021/09/19 01:49:49;;;;;;;2.10;1.90;;;12.70;99.90;;;;;;5014484;28;20183;-68
2021/09/19 01:52:16;;;;;;;1.70;1.60;;;12.70;99.90;;;;;;5014732;28;20933;-70
2021/09/19 01:54:42;;;;;;;1.87;1.50;;;12.70;99.90;;;;;;5014366;28;20526;-71
2021/09/19 01:57:07;;;;;;;2.50;1.93;;;12.70;99.90;;;;;;5014664;28;20523;-70
2021/09/19 01:59:34;;;;;;;2.70;1.87;;;12.70;99.90;;;;;;5014500;28;20177;-70
2021/09/19 02:02:00;;;;;;;2.17;1.47;;;12.70;99.90;;;;;;5014140;28;20173;-69
2021/09/19 02:04:25;;;;;;;1.83;1.63;;;12.70;99.90;;;;;;5013848;28;20431;-70
2021/09/19 02:06:51;;;;;;;2.00;1.80;;;12.60;99.90;;;;;;5014028;28;20183;-70
2021/09/19 02:09:16;;;;;;;2.10;1.90;;;12.60;99.90;;;;;;5014071;28;20658;-71
2021/09/19 02:11:41;;;;;;;3.03;2.27;;;12.60;99.90;;;;;;5014292;28;20207;-69
2021/09/19 02:14:07;;;;;;;2.17;1.67;;;12.60;99.90;;;;;;5013968;28;20204;-70
2021/09/19 02:16:33;;;;;;;2.43;2.00;;;12.60;99.90;;;;;;5014149;28;20601;-72
2021/09/19 02:18:58;;;;;;;3.67;2.20;;;12.60;99.90;;;;;;5013780;28;20194;-70
2021/09/19 02:21:24;;;;;;;2.47;1.87;;;12.60;99.90;;;;;;5013716;28;20263;-69
2021/09/19 02:23:50;;;;;;;3.47;1.70;;;12.50;99.90;;;;;;5013654;28;20647;-69
2021/09/19 02:26:15;;;;;;;2.17;1.83;;;12.50;99.90;;;;;;5013779;28;20423;-70
2021/09/19 02:28:41;;;;;;;3.23;2.20;;;12.50;99.90;;;;;;5013694;28;20176;-71
2021/09/19 02:31:06;;;;;;;2.10;1.87;;;12.50;99.90;;;;;;5013563;28;20172;-70
2021/09/19 02:33:33;;;;;;;2.40;1.93;;;12.50;99.90;;;;;;5013468;28;20188;-69
2021/09/19 02:35:59;;;;;;;2.90;2.13;;;12.50;99.90;;;;;;5013448;28;20573;-70
2021/09/19 02:38:24;;;;;;;1.97;1.40;;;12.50;99.90;;;;;;5013422;28;20415;-69
2021/09/19 02:40:53;;;;;;;2.13;1.77;;;12.50;99.90;;;;;;5013481;28;20255;-70
2021/09/19 02:43:20;;;;;;;3.13;2.00;;;12.50;99.90;;;;;;5013441;28;20180;-69
2021/09/19 02:45:46;;;;;;;2.30;1.70;;;12.50;99.90;;;;;;5013275;28;20435;-69
2021/09/19 02:48:11;;;;;;;2.17;1.97;;;12.50;99.90;;;;;;5013296;28;20426;-69
2021/09/19 02:50:37;;;;;;;2.80;1.67;;;12.50;99.90;;;;;;5013360;28;20639;-70
2021/09/19 02:53:02;;;;;;;2.00;1.80;;;12.50;99.90;;;;;;5013417;28;20183;-71
2021/09/19 02:55:28;;;;;;;2.70;1.97;;;12.40;99.90;;;;;;5012170;28;20234;-70
2021/09/19 02:57:53;;;;;;;1.93;1.80;;;12.50;99.90;;;;;;5013100;28;20173;-70
2021/09/19 03:00:21;;;;;;;2.00;1.80;;;12.40;99.90;;;;;;5013127;28;20527;-70
2021/09/19 03:02:48;;;;;;;2.20;1.63;;;12.50;99.90;;;;;;5013012;28;20642;-70
2021/09/19 03:05:14;;;;;;;2.07;1.70;;;12.50;99.90;;;;;;5012731;28;20851;-70
2021/09/19 03:07:40;;;;;;;1.60;1.50;;;12.40;99.90;;;;;;4995430;28;20486;-70
2021/09/19 03:10:08;;;;;;;2.33;1.97;;;12.40;99.90;;;;;;5013147;28;20491;-69
2021/09/19 03:12:33;;;;;;;2.10;1.80;;;12.40;99.90;;;;;;5012900;28;20426;-70
2021/09/19 03:14:59;;;;;;;1.80;1.70;;;12.40;99.90;;;;;;5012782;28;20458;-69
2021/09/19 03:17:24;;;;;;;1.73;1.60;;;12.40;99.90;;;;;;5012534;28;20687;-70
2021/09/19 03:19:50;;;;;;;3.33;1.90;;;12.40;99.90;;;;;;5012778;28;20234;-70
2021/09/19 03:22:15;;;;;;;2.87;1.50;;;12.40;99.90;;;;;;5012595;28;20174;-69
2021/09/19 03:24:41;;;;;;;2.30;2.00;;;12.40;99.90;;;;;;5012691;28;20571;-71
2021/09/19 03:27:06;;;;;;;2.07;1.50;;;12.40;99.90;;;;;;5012592;28;20230;-72
2021/09/19 03:29:32;;;;;;;2.03;1.60;;;12.40;99.90;;;;;;5012968;28;20179;-70
2021/09/19 03:31:57;;;;;;;2.13;1.97;;;12.40;99.90;;;;;;5012950;28;20184;-71
2021/09/19 03:34:23;;;;;;;2.63;2.30;;;12.40;99.90;;;;;;5012253;28;20317;-71
2021/09/19 03:36:50;;;;;;;5.20;2.43;;;12.40;99.90;;;;;;5012810;28;20176;-69
2021/09/19 03:39:16;;;;;;;2.80;2.10;;;12.30;99.90;;;;;;5012379;28;20583;-70
2021/09/19 03:41:41;;;;;;;2.70;1.80;;;12.40;99.90;;;;;;5012322;28;20408;-71
2021/09/19 03:44:09;;;;;;;2.73;2.00;;;12.30;99.90;;;;;;5012020;28;20441;-71
2021/09/19 03:46:34;;;;;;;2.67;2.27;;;12.30;99.90;;;;;;5012260;28;20247;-70
2021/09/19 03:49:00;;;;;;;1.93;1.60;;;12.30;99.90;;;;;;5012278;28;20913;-70
2021/09/19 03:51:25;;;;;;;2.27;1.80;;;12.30;99.90;;;;;;5012284;28;20176;-71
2021/09/19 03:53:51;;;;;;;1.97;1.77;;;12.30;99.90;;;;;;5012009;28;20651;-70
2021/09/19 03:56:16;;;;;;;1.80;1.60;;;12.20;99.90;;;;;;5012102;28;20168;-70
2021/09/19 03:58:42;;;;;;;2.23;1.97;;;12.20;99.90;;;;;;5012164;28;20219;-71
2021/09/19 04:01:08;;;;;;;2.07;1.70;;;12.30;99.90;;;;;;5011958;28;20219;-69
2021/09/19 04:03:33;;;;;;;1.80;1.70;;;12.30;99.90;;;;;;5012057;28;20169;-69
2021/09/19 04:05:59;;;;;;;3.17;2.00;;;12.30;99.90;;;;;;5012133;28;20180;-71
2021/09/19 04:08:24;;;;;;;1.77;1.60;;;12.30;99.90;;;;;;5012154;28;20609;-70
2021/09/19 04:10:49;;;;;;;2.70;2.00;;;12.30;99.90;;;;;;5012524;28;20173;-71
2021/09/19 04:13:15;;;;;;;2.43;2.13;;;12.30;99.90;;;;;;5012059;28;20586;-70
2021/09/19 04:15:41;;;;;;;3.30;1.90;;;12.20;99.90;;;;;;5011998;28;20216;-70
2021/09/19 04:18:07;;;;;;;3.57;2.20;;;12.20;99.90;;;;;;5011995;28;20192;-70
2021/09/19 04:20:33;;;;;;;2.23;2.00;;;12.30;99.90;;;;;;4994331;28;20430;-70
2021/09/19 04:22:58;;;;;;;2.83;1.63;;;12.30;99.90;;;;;;5011824;28;20411;-70
2021/09/19 04:25:24;;;;;;;4.50;2.40;;;12.30;99.90;;;;;;4993920;28;20302;-69
2021/09/19 04:27:49;;;;;;;1.93;1.80;;;12.20;99.90;;;;;;5011687;28;20247;-70
2021/09/19 04:30:15;;;;;;;2.70;1.73;;;12.20;99.90;;;;;;5011755;28;20176;-70
2021/09/19 04:32:41;;;;;;;3.23;1.47;;;12.20;99.90;;;;;;5011958;28;20180;-70
2021/09/19 04:35:07;;;;;;;3.53;1.43;;;12.20;99.90;;;;;;5011421;28;20568;-70
2021/09/19 04:37:32;;;;;;;3.13;1.87;;;12.30;99.90;;;;;;5011324;28;20172;-70
2021/09/19 04:39:58;;;;;;;4.50;1.77;;;12.30;99.90;;;;;;5011433;28;20466;-68
2021/09/19 04:42:23;;;;;;;2.07;1.53;;;12.20;99.90;;;;;;5011266;28;20179;-69
2021/09/19 04:44:49;;;;;;;1.87;1.47;;;12.20;99.90;;;;;;5011119;28;20242;-69
2021/09/19 04:47:15;;;;;;;2.87;2.00;;;12.20;99.90;;;;;;5011406;28;20185;-70
2021/09/19 04:49:40;;;;;;;2.80;2.07;;;12.20;99.90;;;;;;5011290;28;20430;-69
2021/09/19 04:52:06;;;;;;;2.73;1.87;;;12.20;99.90;;;;;;5011292;28;20180;-70
2021/09/19 04:54:32;;;;;;;2.47;1.93;;;12.20;99.90;;;;;;5010957;28;20260;-70
2021/09/19 04:56:59;;;;;;;3.87;2.33;;;12.20;99.90;;;;;;5011340;28;20221;-69
2021/09/19 04:59:24;;;;;;;2.63;2.30;;;12.20;99.90;;;;;;5011182;28;20410;-69
2021/09/19 05:01:50;;;;;;;1.37;1.27;;;12.20;99.90;;;;;;5011137;28;20396;-70
2021/09/19 05:04:16;;;;;;;2.67;2.03;;;12.20;99.90;;;;;;5011024;28;20279;-70
2021/09/19 05:06:42;;;;;;;2.17;1.80;;;12.30;99.90;;;;;;5011211;28;20554;-70
2021/09/19 05:09:07;;;;;;;2.27;2.07;;;12.30;99.90;;;;;;5011166;28;20411;-71
2021/09/19 05:11:34;;;;;;;1.90;1.70;;;12.20;99.90;;;;;;5011097;28;20172;-70
2021/09/19 05:13:59;;;;;;;2.60;1.63;;;12.30;99.90;;;;;;5010733;28;20195;-70
2021/09/19 05:16:26;;;;;;;3.30;2.03;;;12.20;99.90;;;;;;5011233;28;20411;-69
2021/09/19 05:18:52;;;;;;;2.53;2.17;;;12.20;99.90;;;;;;5014249;28;20264;-69
2021/09/19 05:21:17;;;;;;;3.83;2.27;;;12.20;99.90;;;;;;5015007;28;20442;-70
2021/09/19 05:23:43;;;;;;;2.83;2.17;;;12.20;99.90;;;;;;5014865;28;20400;-69
2021/09/19 05:26:08;;;;;;;3.00;2.53;;;12.20;99.90;;;;;;5014763;28;20185;-69
2021/09/19 05:28:34;;;;;;;2.20;1.97;;;12.20;99.90;;;;;;5014799;28;20251;-70
2021/09/19 05:30:59;;;;;;;1.50;1.40;;;12.30;99.90;;;;;;5014695;28;20176;-70
2021/09/19 05:33:25;;;;;;;1.83;1.70;;;12.30;99.90;;;;;;5014568;28;20643;-69
2021/09/19 05:35:50;;;;;;;2.43;1.70;;;12.20;99.90;;;;;;5014573;28;20208;-69
2021/09/19 05:38:16;;;;;;;2.30;2.10;;;12.20;99.90;;;;;;5014544;28;20247;-69
2021/09/19 05:40:42;;;;;;;4.30;2.10;;;12.30;99.90;;;;;;5014569;28;20196;-70
2021/09/19 05:43:07;;;;;;;3.60;2.00;;;12.30;99.90;;;;;;5014364;28;20906;-69
2021/09/19 05:45:33;;;;;;;2.40;2.10;;;12.30;99.90;;;;;;5014346;28;20191;-69
2021/09/19 05:47:59;;;;;;;2.40;1.70;;;12.30;99.90;;;;;;5014392;28;20259;-70
2021/09/19 05:50:25;;;;;;;2.00;1.53;;;12.30;99.90;;;;;;5014465;28;20177;-69
2021/09/19 05:52:51;;;;;;;2.60;2.40;;;12.30;99.90;;;;;;5014322;28;20541;-69
2021/09/19 05:55:17;;;;;;;3.23;2.17;;;12.40;99.90;;;;;;5014127;28;20502;-70
2021/09/19 05:57:43;;;;;;;2.90;2.40;;;12.40;99.90;;;;;;5014169;28;20302;-68
2021/09/19 06:00:09;;;;;;;2.40;2.20;;;12.40;99.90;;;;;;5014246;28;20240;-70
2021/09/19 06:02:35;;;;;;;3.10;1.73;;;12.40;99.90;;;;;;5014124;28;20438;-70
2021/09/19 06:05:01;;;;;;;1.87;1.77;;;12.40;99.90;;;;;;5014147;28;20435;-72
2021/09/19 06:07:26;;;;;;;3.47;2.07;;;12.50;99.90;;;;;;5014189;28;20180;-70
2021/09/19 06:09:52;;;;;;;2.30;1.87;;;12.50;99.90;;;;;;5014377;28;20271;-69
2021/09/19 06:12:18;;;;;;;2.93;2.40;;;12.50;99.90;;;;;;5013983;28;20175;-69
2021/09/19 06:14:43;;;;;;;2.13;1.40;;;12.60;99.90;;;;;;5013718;28;20282;-69
2021/09/19 06:17:09;;;;;;;2.63;2.10;;;12.60;99.90;;;;;;5013868;28;20400;-69
2021/09/19 06:19:35;;;;;;;2.90;1.70;;;12.60;99.90;;;;;;5013889;28;20208;-69
2021/09/19 06:22:01;;;;;;;1.70;1.60;;;12.60;99.90;;;;;;5013695;28;20183;-71
2021/09/19 06:24:28;;;;;;;4.23;2.03;;;12.50;99.90;;;;;;5013709;28;20859;-69
2021/09/19 06:26:55;;;;;;;2.47;2.27;;;12.60;99.90;;;;;;5013795;28;20232;-70
2021/09/19 06:29:21;;;;;;;2.23;2.03;;;12.50;99.90;;;;;;5012842;28;20406;-70
2021/09/19 06:31:46;;;;;;;2.23;1.77;;;12.60;99.90;;;;;;4995956;28;20930;-70
2021/09/19 06:34:12;;;;;;;1.37;1.27;;;12.60;99.90;;;;;;4995895;28;20207;-71
2021/09/19 06:36:37;;;;;;;2.57;1.80;;;12.50;99.90;;;;;;5013882;28;20255;-70
2021/09/19 06:39:03;;;;;;;2.03;1.70;;;12.60;99.90;;;;;;5013588;28;20219;-70
2021/09/19 06:41:28;;;;;;;3.57;2.10;;;12.60;99.90;;;;;;5013405;28;20172;-70
2021/09/19 06:43:53;;;;;;;3.03;1.60;;;12.60;99.90;;;;;;5013285;28;20169;-69
2021/09/19 06:46:19;;;;;;;2.90;2.40;;;12.60;99.90;;;;;;5013375;28;20263;-69
2021/09/19 06:48:44;;;;;;;2.33;2.10;;;12.70;99.90;;;;;;5013386;28;20168;-71
2021/09/19 06:51:10;;;;;;;3.40;2.37;;;12.70;99.90;;;;;;5013248;28;20619;-70
2021/09/19 06:53:37;;;;;;;2.03;1.83;;;12.70;99.90;;;;;;5013093;28;20173;-70
2021/09/19 06:56:06;;;;;;;2.57;2.10;;;12.70;99.90;;;;;;5013189;28;20203;-70
2021/09/19 06:58:32;;;;;;;3.77;2.40;;;12.80;99.90;;;;;;5013183;28;20399;-70
2021/09/19 07:00:58;;;;;;;2.00;1.80;;;12.80;99.90;;;;;;5013084;28;20482;-69
2021/09/19 07:03:23;;;;;;;2.50;1.90;;;12.80;99.90;;;;;;4995547;28;20901;-70
2021/09/19 07:05:49;;;;;;;1.60;1.50;;;12.90;99.90;;;;;;5013387;28;20438;-70
2021/09/19 07:08:14;;;;;;;3.43;2.40;;;12.90;99.90;;;;;;5013285;28;20180;-70
2021/09/19 07:10:40;;;;;;;2.20;2.00;;;13.00;99.90;;;;;;5013042;28;20551;-70
2021/09/19 07:13:05;;;;;;;3.57;2.00;;;12.90;99.90;;;;;;5012894;28;20206;-71
2021/09/19 07:15:31;;;;;;;4.17;2.60;;;13.00;99.90;;;;;;5012882;28;20306;-70
2021/09/19 07:17:56;;;;;;;2.37;1.60;;;13.00;99.90;;;;;;5012770;28;20184;-69
2021/09/19 07:20:22;;;;;;;2.23;2.03;;;13.10;99.90;;;;;;5012947;28;20184;-69
2021/09/19 07:22:47;;;;;;;2.60;2.07;;;13.20;99.90;;;;;;5012912;28;20274;-70
2021/09/19 07:25:15;;;;;;;1.40;1.30;;;13.20;99.90;;;;;;5013077;28;20207;-69
2021/09/19 07:27:41;;;;;;;4.00;2.20;;;13.30;99.90;;;;;;5012927;28;20164;-69
2021/09/19 07:30:07;;;;;;;3.30;2.73;;;13.30;99.90;;;;;;5012707;28;20462;-70
2021/09/19 07:32:34;;;;;;;1.57;1.33;;;13.30;99.90;;;;;;4995193;28;20426;-71
2021/09/19 07:35:00;;;;;;;2.43;1.57;;;13.30;99.90;;;;;;5012624;28;20545;-70
2021/09/19 07:37:26;;;;;;;2.67;2.00;;;13.30;99.90;;;;;;5012607;28;20958;-70
2021/09/19 07:39:52;;;;;;;3.13;2.10;;;13.30;99.90;;;;;;5012348;28;20406;-69
2021/09/19 07:42:18;;;;;;;2.33;2.13;;;13.30;99.90;;;;;;5012374;28;20782;-71
2021/09/19 07:44:43;;;;;;;3.77;2.20;;;13.30;99.90;;;;;;5012236;28;20226;-70
2021/09/19 07:47:09;;;;;;;1.47;1.37;;;13.50;99.90;;;;;;5012369;28;20182;-70
2021/09/19 07:49:36;;;;;;;3.30;2.17;;;13.40;99.90;;;;;;5012410;28;20180;-70
2021/09/19 07:52:04;;;;;;;2.40;1.73;;;13.50;99.90;;;;;;5012347;28;20255;-71
2021/09/19 07:54:30;;;;;;;2.43;1.97;;;13.50;99.90;;;;;;5011915;28;20459;-70
2021/09/19 07:56:55;;;;;;;4.43;2.03;;;13.70;99.90;;;;;;5012469;28;20411;-69
2021/09/19 07:59:21;;;;;;;5.03;1.57;;;13.70;99.90;;;;;;5012051;28;20173;-70
2021/09/19 08:01:47;;;;;;;2.73;1.70;;;13.80;99.90;;;;;;5012251;28;20169;-69
2021/09/19 08:04:12;;;;;;;2.00;1.80;;;13.90;99.90;;;;;;5011917;28;21017;-71
2021/09/19 08:06:38;;;;;;;2.93;2.10;;;13.90;99.90;;;;;;5012225;28;20515;-70
2021/09/19 08:09:03;;;;;;;2.00;1.60;;;14.20;99.90;;;;;;5012009;28;20172;-69
2021/09/19 08:11:29;;;;;;;1.90;1.57;;;14.30;99.90;;;;;;5012187;28;20179;-70
2021/09/19 08:14:05;;;;;;;2.40;2.20;;;14.30;99.90;;;;;;5012205;28;20603;-71
2021/09/19 08:16:33;;;;;;;2.63;1.63;;;14.30;99.90;;;;;;5012144;28;20164;-71
2021/09/19 08:18:58;;;;;;;2.10;1.50;;;14.40;99.90;;;;;;5011874;28;20569;-69
2021/09/19 08:21:24;;;;;;;1.80;1.60;;;14.60;99.90;;;;;;5011963;28;20902;-69
2021/09/19 08:23:49;;;;;;;1.80;1.70;;;14.50;99.90;;;;;;5011639;28;20180;-70
2021/09/19 08:26:15;;;;;;;2.20;1.83;;;14.50;99.90;;;;;;5012066;28;20173;-71
2021/09/19 08:28:40;;;;;;;2.47;1.77;;;14.60;99.90;;;;;;5011727;28;20169;-70
2021/09/19 08:31:06;;;;;;;2.47;2.27;;;14.60;99.90;;;;;;5011840;28;20303;-71
2021/09/19 08:33:31;;;;;;;4.27;1.53;;;14.40;99.90;;;;;;5011910;28;20180;-71
2021/09/19 08:35:59;;;;;;;2.47;2.20;;;14.40;99.90;;;;;;5011851;28;20209;-70
2021/09/19 08:38:25;;;;;;;2.80;1.80;;;14.60;99.90;;;;;;5011828;28;20230;-70
2021/09/19 08:40:51;;;;;;;4.30;2.00;;;14.60;99.90;;;;;;5011767;28;20417;-70
2021/09/19 08:43:18;;;;;;;2.43;1.77;;;14.70;99.90;;;;;;5011872;28;20164;-70
2021/09/19 08:45:51;;;;;;;1.97;1.67;;;14.80;99.90;;;;;;5011743;28;20432;-71
2021/09/19 08:48:18;;;;;;;1.63;1.40;;;14.80;99.90;;;;;;5012079;28;20411;-71
2021/09/19 08:50:48;;;;;;;1.37;1.27;;;14.70;99.90;;;;;;5011580;28;20467;-69
2021/09/19 08:53:13;;;;;;;3.23;2.23;;;14.70;99.90;;;;;;4993064;28;20467;-69
2021/09/19 08:55:39;;;;;;;2.07;1.60;;;14.80;99.90;;;;;;5011442;28;20483;-70
2021/09/19 08:58:04;;;;;;;2.50;2.13;;;14.70;99.90;;;;;;5011925;28;20170;-72
2021/09/19 09:00:39;;;;;;;1.60;1.40;;;14.80;99.90;;;;;;5011625;28;20172;-72
2021/09/19 09:03:10;;;;;;;1.83;1.47;;;14.90;99.90;;;;;;5011602;28;20609;-71
2021/09/19 09:05:37;;;;;;;1.97;1.57;;;14.90;99.90;;;;;;5011514;28;20535;-70
2021/09/19 09:08:04;;;;;;;2.13;1.93;;;15.20;99.90;;;;;;5011528;28;20986;-71
2021/09/19 09:10:40;;;;;;;1.60;1.50;;;15.20;99.90;;;;;;5011165;28;20424;-69
2021/09/19 09:13:12;;;;;;;1.93;1.77;;;15.70;99.90;;;;;;5011250;28;20497;-70
2021/09/19 09:15:42;;;;;;;2.30;1.77;;;16.10;99.90;;;;;;5011128;28;20461;-71
2021/09/19 09:18:11;;;;;;;1.60;1.30;;;16.80;99.90;;;;;;4993911;28;21022;-71
2021/09/19 09:20:46;;;;;;;2.40;1.73;;;17.00;99.90;;;;;;5011265;28;20975;-69
2021/09/19 09:23:30;;;;;;;2.43;1.70;;;17.00;99.90;;;;;;5011134;28;20408;-69
2021/09/19 09:26:32;;;;;;;1.50;1.40;;;16.90;99.90;;;;;;5011380;28;20507;-70
2021/09/19 09:29:03;;;;;;;1.73;1.47;;;17.40;99.90;;;;;;5011368;28;20415;-70
2021/09/19 09:31:41;;;;;;;1.50;1.30;;;17.00;99.90;;;;;;5011152;28;20461;-68
2021/09/19 09:34:11;;;;;;;1.90;1.53;;;17.50;99.90;;;;;;5010850;28;20887;-72
2021/09/19 09:36:55;;;;;;;1.80;1.40;;;17.40;99.90;;;;;;4993333;28;20422;-71
2021/09/19 09:39:36;;;;;;;1.47;1.37;;;17.30;99.90;;;;;;5011068;28;20432;-70
2021/09/19 09:42:17;;;;;;;2.70;2.50;;;17.30;99.90;;;;;;5010949;28;20923;-70
2021/09/19 09:44:50;;;;;;;1.30;1.20;;;17.20;99.90;;;;;;5010954;28;20476;-70
2021/09/19 09:47:28;;;;;;;1.10;1.00;;;17.10;99.90;;;;;;5011019;28;20904;-70
2021/09/19 09:49:59;;;;;;;1.63;1.50;;;17.30;99.90;;;;;;5010962;28;20410;-70
2021/09/19 09:52:33;;;;;;;1.67;1.50;;;17.10;99.90;;;;;;5011015;28;20421;-70
2021/09/19 09:55:00;;;;;;;2.93;2.13;;;16.30;99.90;;;;;;5010820;28;20460;-70
2021/09/19 09:57:35;;;;;;;2.10;1.53;;;17.10;99.90;;;;;;5010821;28;20409;-70
2021/09/19 10:00:13;;;;;;;2.30;1.70;;;17.20;99.90;;;;;;5011245;28;20547;-69
2021/09/19 10:02:42;;;;;;;2.10;1.50;;;17.10;99.90;;;;;;5011077;28;20912;-69
2021/09/19 10:05:09;;;;;;;1.40;1.30;;;17.30;99.90;;;;;;5014206;28;20447;-70
2021/09/19 10:07:36;;;;;;;1.60;1.37;;;17.70;99.90;;;;;;5014398;28;20425;-70
2021/09/19 10:10:04;;;;;;;1.50;1.40;;;17.30;99.90;;;;;;5013887;28;20462;-68
2021/09/19 10:12:30;;;;;;;1.70;1.50;;;17.30;99.90;;;;;;5014507;28;20427;-71
2021/09/19 10:14:55;;;;;;;1.47;1.20;;;17.30;99.90;;;;;;5014058;28;20466;-69
2021/09/19 10:17:22;;;;;;;4.07;1.50;;;17.20;99.90;;;;;;5014131;28;20417;-69
2021/09/19 10:19:49;;;;;;;1.13;1.03;;;17.10;99.90;;;;;;5014219;28;20183;-69
2021/09/19 10:22:23;;;;;;;1.47;1.37;;;17.00;99.90;;;;;;5013896;28;20415;-69
2021/09/19 10:24:49;;;;;;;1.30;1.17;;;17.20;99.90;;;;;;5013913;28;20435;-70
2021/09/19 10:27:23;;;;;;;1.73;1.33;;;17.10;99.90;;;;;;5013990;28;20487;-68
2021/09/19 10:29:56;;;;;;;1.70;1.60;;;17.10;99.90;;;;;;5013827;28;20223;-71
2021/09/19 10:32:42;;;;;;;1.50;1.40;;;17.00;99.90;;;;;;5013795;28;20463;-69
2021/09/19 10:35:18;;;;;;;1.37;1.17;;;17.10;99.90;;;;;;5013206;28;20463;-69
2021/09/19 10:38:10;;;;;;;1.50;1.40;;;17.10;99.90;;;;;;5013684;28;20396;-68
2021/09/19 10:40:38;;;;;;;1.50;1.40;;;17.40;99.90;;;;;;5011688;28;20853;-69
2021/09/19 10:43:19;;;;;;;1.60;1.50;;;17.50;99.90;;;;;;5013617;28;20441;-69
2021/09/19 10:45:50;;;;;;;2.00;1.50;;;17.80;99.90;;;;;;5013615;28;20505;-68
2021/09/19 10:48:25;;;;;;;1.87;1.77;;;17.80;99.90;;;;;;5013904;28;20400;-69
2021/09/19 10:51:02;;;;;;;1.67;1.57;;;17.50;99.90;;;;;;5013657;28;20411;-68
2021/09/19 10:53:27;;;;;;;1.37;1.27;;;17.20;99.90;;;;;;5013403;28;20494;-69
2021/09/19 10:56:03;;;;;;;3.00;1.70;;;17.40;99.90;;;;;;5013094;28;20555;-69
2021/09/19 10:58:31;;;;;;;1.80;1.27;;;17.20;99.90;;;;;;5013472;28;20584;-69
2021/09/19 11:01:18;;;;;;;1.30;1.20;;;17.00;99.90;;;;;;5013540;28;20416;-69
2021/09/19 11:03:44;;;;;;;1.83;1.40;;;16.80;99.90;;;;;;5013862;28;20407;-70
2021/09/19 11:06:23;;;;;;;1.73;1.40;;;16.80;99.90;;;;;;5013223;28;20468;-69
2021/09/19 11:08:49;;;;;;;2.13;1.50;;;16.70;99.90;;;;;;5013136;28;20449;-70
2021/09/19 11:11:20;;;;;;;1.90;1.40;;;16.60;99.90;;;;;;5012837;28;20442;-69
2021/09/19 11:13:53;;;;;;;2.13;1.80;;;16.40;99.90;;;;;;5013089;28;20175;-69
2021/09/19 11:16:30;;;;;;;2.13;1.20;;;16.50;99.90;;;;;;5012554;28;20952;-70
2021/09/19 11:19:02;;;;;;;1.70;1.60;;;16.30;99.90;;;;;;5012826;28;20437;-69
2021/09/19 11:21:28;;;;;;;2.80;2.13;;;16.20;99.90;;;;;;5013019;28;20413;-69
2021/09/19 11:24:03;;;;;;;1.63;1.37;;;16.10;99.90;;;;;;5012731;28;20412;-71
2021/09/19 11:26:32;;;;;;;3.07;1.77;;;16.10;99.90;;;;;;5012933;28;20439;-70
2021/09/19 11:29:05;;;;;;;1.70;1.60;;;16.20;99.90;;;;;;5012655;28;20432;-71
2021/09/19 11:31:30;;;;;;;1.77;1.63;;;16.00;99.90;;;;;;5012730;28;20470;-71
2021/09/19 11:34:05;;;;;;;1.73;1.30;;;16.00;99.90;;;;;;5012535;28;20460;-69
2021/09/19 11:36:31;;;;;;;1.53;1.43;;;16.10;99.90;;;;;;5012780;28;20254;-70
2021/09/19 11:38:57;;;;;;;2.50;1.50;;;16.10;99.90;;;;;;5012588;28;20431;-70
2021/09/19 11:41:23;;;;;;;2.07;1.50;;;16.10;99.90;;;;;;5012438;28;20506;-70
2021/09/19 11:43:52;;;;;;;1.73;1.63;;;16.00;99.90;;;;;;5012461;28;20838;-70
2021/09/19 11:46:20;;;;;;;2.60;1.73;;;15.90;99.90;;;;;;5012776;28;20933;-70
2021/09/19 11:48:46;;;;;;;2.07;1.90;;;15.90;99.90;;;;;;5012355;28;20778;-70
2021/09/19 11:51:15;;;;;;;2.67;2.03;;;15.90;99.90;;;;;;5012402;28;20417;-71
2021/09/19 11:53:43;;;;;;;1.90;1.40;;;15.90;99.90;;;;;;5012196;28;20177;-71
2021/09/19 11:56:08;;;;;;;2.13;1.77;;;15.90;99.90;;;;;;5012013;28;20468;-70
2021/09/19 11:58:34;;;;;;;2.40;2.00;;;15.80;99.90;;;;;;5012517;28;20409;-70
2021/09/19 12:01:00;;;;;;;2.50;1.30;;;15.80;99.90;;;;;;5012207;28;20537;-70
2021/09/19 12:03:28;;;;;;;2.60;2.40;;;15.80;99.90;;;;;;5012300;28;20177;-71
2021/09/19 12:05:56;;;;;;;2.13;1.30;;;15.70;99.90;;;;;;5012220;28;20486;-71
2021/09/19 12:08:24;;;;;;;1.90;1.63;;;15.80;99.90;;;;;;5012204;28;20513;-70
2021/09/19 12:10:51;;;;;;;1.60;1.27;;;15.90;99.90;;;;;;5012070;28;20419;-70
2021/09/19 12:13:25;;;;;;;1.37;1.27;;;16.00;99.90;;;;;;5012085;28;20729;-70
2021/09/19 12:16:01;;;;;;;1.87;1.57;;;15.90;99.90;;;;;;5012089;28;20460;-70
2021/09/19 12:18:29;;;;;;;1.57;1.10;;;16.10;99.90;;;;;;5011932;28;20490;-70
2021/09/19 12:20:56;;;;;;;1.80;1.40;;;16.00;99.90;;;;;;5011889;28;20958;-70
2021/09/19 12:23:22;;;;;;;1.80;1.47;;;16.00;99.90;;;;;;5011684;28;20436;-70
2021/09/19 12:25:50;;;;;;;2.43;1.63;;;15.90;99.90;;;;;;5011711;28;20425;-71
2021/09/19 12:28:37;;;;;;;1.53;1.43;;;15.90;99.90;;;;;;5010859;28;20417;-70
2021/09/19 12:31:04;;;;;;;2.10;1.90;;;16.10;99.90;;;;;;5012033;28;20417;-70
2021/09/19 12:33:29;;;;;;;1.73;1.63;;;16.10;99.90;;;;;;5011733;28;20465;-70
2021/09/19 12:35:55;;;;;;;2.33;1.50;;;16.10;99.90;;;;;;5011557;28;20859;-70
2021/09/19 12:38:24;;;;;;;1.70;1.53;;;16.20;99.90;;;;;;5011856;28;20178;-71
2021/09/19 12:40:51;;;;;;;1.60;1.50;;;16.20;99.90;;;;;;5011747;28;20665;-71
2021/09/19 12:43:17;;;;;;;2.83;1.60;;;16.10;99.90;;;;;;5011786;28;20408;-70
2021/09/19 12:45:51;;;;;;;2.40;1.80;;;16.00;99.90;;;;;;5011663;28;20957;-70
2021/09/19 12:48:27;;;;;;;1.90;1.63;;;16.10;99.90;;;;;;5011456;28;20399;-69
2021/09/19 12:51:01;;;;;;;2.53;1.73;;;16.10;99.90;;;;;;4993684;28;20784;-70